Pagina principale
METAR-TAF:

METAR-TAF

Aeroporti :

Nancy, Francia

latitudine: 48-41N, longitudine: 006-13E, altezza: 225 m

Osservazione

Il bollettino è stato emesso 44 minuti fa, alle 19:00 UTC
Vento 10 kt da nord-ovest, variando fra ovest e nord/nord-ovest
Temperature 21°C
Umidità 69%
Pressione 1020 hPa
Visibilità 10 km o più
Poco nuvoloso ad un'altezza di 2600 ft

METAR: LFSN 231900Z AUTO 31010KT 270V340 9999 FEW026 21/15 Q1020

Ora: 21:44 (19:44 UTC)


TAF: mancante

Osservazioni e previsioni meteorologiche di più di 4000 aeroporti (messaggi METAR e TAF).

Le stazioni disponibili sono rappresentate dai dischi gialli e rossi sulla carta.

Puntare il mouse per vedere il nome della stazione.

Clicca sopra per visualizzare le osservazioni e previsioni meteorologiche.

Per cambiare la mappa : fare clic sui pulsanti verdi con una croce nera per ingrandire, il pulsante verde con un trattino per diminuire, o sulla freccia verde per le mappe adiacenti.


METAR-TAF: